Time;durP1;ratioP1;P1;durP2;ratioP2;P2;SDS_P1;SDS_P2;PMS_P1;PMS_P2;Temp;Humidity;BMP_temperature;BMP_pressure;BME280_temperature;BME280_humidity;BME280_pressure;Samples;Min_cycle;Max_cycle;Signal;HPM_P1;HPM_P2
2023/03/25 00:01:24;;;;;;;7.90;7.10;;;;;;;11.37;70.61;101411.58;106893;1269;25403;-52
2023/03/25 00:03:53;;;;;;;9.80;6.60;;;;;;;11.37;70.65;101412.27;107194;1269;25518;-51
2023/03/25 00:06:21;;;;;;;10.10;7.60;;;;;;;11.38;70.74;101410.86;107080;1268;23852;-52
2023/03/25 00:08:50;;;;;;;9.60;7.70;;;;;;;11.39;70.77;101406.69;107020;1268;25561;-53
2023/03/25 00:11:20;;;;;;;8.80;7.90;;;;;;;11.40;70.77;101405.80;107017;1274;22518;-53
2023/03/25 00:13:49;;;;;;;9.20;8.00;;;;;;;11.43;70.63;101404.02;107184;1267;25356;-53
2023/03/25 00:16:24;;;;;;;8.50;7.80;;;;;;;11.44;70.75;101402.95;107124;1266;25381;-53
2023/03/25 00:18:54;;;;;;;9.40;8.60;;;;;;;11.45;70.77;101400.69;106953;1270;25492;-53
2023/03/25 00:21:23;;;;;;;8.80;7.90;;;;;;;11.45;70.68;101401.02;105973;1274;1003523;-52
2023/03/25 00:23:51;;;;;;;8.90;8.00;;;;;;;11.46;70.61;101399.12;106993;1273;22529;-51
2023/03/25 00:26:20;;;;;;;9.50;8.60;;;;;;;11.45;70.57;101396.86;107073;1258;25309;-52
2023/03/25 00:28:49;;;;;;;10.40;8.40;;;;;;;11.46;70.66;101386.94;107242;1270;25346;-52
2023/03/25 00:31:18;;;;;;;8.80;8.00;;;;;;;11.45;70.71;101388.36;107149;1267;25318;-53
2023/03/25 00:33:49;;;;;;;9.20;8.10;;;;;;;11.45;70.74;101391.98;106541;1251;1003290;-54
2023/03/25 00:36:21;;;;;;;10.70;9.60;;;;;;;11.46;70.84;101394.08;107032;1266;23890;-53
2023/03/25 00:38:50;;;;;;;11.70;9.50;;;;;;;11.46;70.71;101387.46;106383;1269;1002904;-53
2023/03/25 00:41:27;;;;;;;10.50;9.00;;;;;;;11.46;70.80;101388.84;107119;1270;25363;-53
2023/03/25 00:43:58;;;;;;;10.00;8.50;;;;;;;11.48;70.76;101382.24;107157;1270;25274;-53
2023/03/25 00:46:29;;;;;;;11.00;9.90;;;;;;;11.46;70.79;101382.25;107143;1261;24209;-54
2023/03/25 00:49:03;;;;;;;9.90;8.90;;;;;;;11.46;70.74;101381.55;107180;1266;25389;-54
2023/03/25 00:51:34;;;;;;;10.10;9.00;;;;;;;11.46;70.75;101378.25;107007;1269;25535;-51
2023/03/25 00:54:22;;;;;;;10.40;9.20;;;;;;;11.45;70.83;101379.48;106897;1272;25512;-52
2023/03/25 00:56:52;;;;;;;11.10;9.30;;;;;;;11.45;70.88;101377.05;107011;1270;24308;-51
2023/03/25 00:59:20;;;;;;;11.60;10.30;;;;;;;11.45;70.85;101368.38;107258;1271;24224;-52
2023/03/25 01:01:52;;;;;;;12.00;9.30;;;;;;;11.44;70.86;101364.90;107141;1267;25324;-52
2023/03/25 01:04:20;;;;;;;9.90;8.60;;;;;;;11.45;70.79;101366.11;107218;1267;22599;-53
2023/03/25 01:06:53;;;;;;;14.20;9.60;;;;;;;11.45;70.72;101368.04;107110;1267;25353;-53
2023/03/25 01:09:25;;;;;;;9.90;8.70;;;;;;;11.45;70.72;101365.24;106909;1267;25511;-53
2023/03/25 01:11:54;;;;;;;9.90;8.90;;;;;;;11.44;70.84;101359.88;107149;1267;25321;-53
2023/03/25 01:14:26;;;;;;;11.70;10.50;;;;;;;11.41;70.85;101359.23;107136;1270;25480;-53
2023/03/25 01:16:54;;;;;;;11.60;9.80;;;;;;;11.40;70.89;101357.67;107142;1261;22604;-53
2023/03/25 01:19:23;;;;;;;12.00;10.80;;;;;;;11.41;71.05;101352.81;106909;1272;24275;-53
2023/03/25 01:22:02;;;;;;;11.70;9.60;;;;;;;11.42;71.06;101353.84;107127;1267;25356;-53
2023/03/25 01:24:30;;;;;;;10.40;9.20;;;;;;;11.42;71.04;101351.40;106948;1273;25318;-53
2023/03/25 01:26:59;;;;;;;12.00;9.70;;;;;;;11.43;71.01;101353.47;107163;1266;25430;-53
2023/03/25 01:29:29;;;;;;;10.10;9.10;;;;;;;11.42;71.06;101344.98;107176;1255;22536;-53
2023/03/25 01:31:58;;;;;;;13.60;9.60;;;;;;;11.43;71.09;101350.34;107205;1266;22532;-53
2023/03/25 01:34:26;;;;;;;11.90;9.70;;;;;;;11.43;71.03;101348.61;106883;1272;22627;-52
2023/03/25 01:36:55;;;;;;;12.50;10.20;;;;;;;11.44;71.13;101349.11;107065;1270;26706;-52
2023/03/25 01:39:24;;;;;;;12.50;9.90;;;;;;;11.43;71.19;101347.20;107201;1266;24352;-52
2023/03/25 01:41:54;;;;;;;11.00;9.60;;;;;;;11.44;71.27;101344.75;107012;1267;22536;-53
2023/03/25 01:44:26;;;;;;;10.90;9.70;;;;;;;11.45;71.15;101340.05;107143;1265;25398;-53
2023/03/25 01:46:57;;;;;;;11.00;10.00;;;;;;;11.45;71.13;101339.19;107162;1269;25471;-52
2023/03/25 01:49:37;;;;;;;14.50;9.60;;;;;;;11.45;71.08;101340.06;107087;1266;25321;-52
2023/03/25 01:52:15;;;;;;;13.40;10.00;;;;;;;11.44;71.05;101335.90;107103;1267;24691;-52
2023/03/25 01:54:44;;;;;;;9.40;8.50;;;;;;;11.45;71.08;101334.50;106885;1267;22528;-53
2023/03/25 01:57:16;;;;;;;9.00;7.70;;;;;;;11.44;71.07;101331.20;107132;1259;25327;-53
2023/03/25 01:59:46;;;;;;;9.30;8.30;;;;;;;11.44;71.24;101325.13;106967;1272;25492;-54
2023/03/25 02:02:16;;;;;;;9.90;8.90;;;;;;;11.44;71.15;101325.82;106426;1270;1003078;-53
2023/03/25 02:04:57;;;;;;;8.80;7.90;;;;;;;11.44;71.19;101323.39;106826;1272;22593;-53
2023/03/25 02:07:29;;;;;;;15.40;8.70;;;;;;;11.44;71.04;101320.95;106924;1273;22518;-54
2023/03/25 02:10:03;;;;;;;8.90;8.00;;;;;;;11.45;71.12;101319.04;107288;1267;25395;-53
2023/03/25 02:12:32;;;;;;;11.20;7.60;;;;;;;11.45;71.13;101320.94;106778;1268;24287;-53
2023/03/25 02:15:02;;;;;;;8.70;7.90;;;;;;;11.45;71.19;101325.30;107013;1268;25336;-53
2023/03/25 02:18:02;;;;;;;8.00;6.70;;;;;;;11.42;71.23;101319.25;106939;1269;24340;-53
2023/03/25 02:20:57;;;;;;;7.90;6.90;;;;;;;11.44;71.15;101319.21;106926;1269;25869;-54
2023/03/25 02:23:33;;;;;;;8.70;7.20;;;;;;;11.45;71.13;101324.76;106498;1262;25370;-52
2023/03/25 02:26:41;;;;;;;8.80;7.40;;;;;;;11.47;71.11;101321.61;106416;1275;25487;-52
2023/03/25 02:29:35;;;;;;;6.60;5.40;;;;;;;11.48;71.25;101315.33;106275;1280;25489;-53
2023/03/25 02:32:22;;;;;;;8.10;4.90;;;;;;;11.49;71.01;101313.59;106201;1278;22533;-54
2023/03/25 02:35:13;;;;;;;6.50;4.80;;;;;;;11.48;70.96;101310.13;106063;1281;24515;-53
2023/03/25 02:37:53;;;;;;;4.90;4.40;;;;;;;11.47;70.85;101311.02;106169;1280;25361;-52
2023/03/25 02:40:25;;;;;;;5.50;4.40;;;;;;;11.46;70.87;101308.92;105970;1279;24223;-53
2023/03/25 02:43:03;;;;;;;4.70;3.80;;;;;;;11.45;70.97;101306.01;105967;1281;23907;-53
2023/03/25 02:45:52;;;;;;;5.20;4.40;;;;;;;11.45;70.84;101300.11;106149;1281;22535;-52
2023/03/25 02:48:26;;;;;;;5.00;3.60;;;;;;;11.45;70.76;101300.80;106270;1280;22536;-54
2023/03/25 02:50:55;;;;;;;5.00;3.80;;;;;;;11.44;70.76;101297.67;106056;1282;25432;-53
2023/03/25 02:53:35;;;;;;;5.90;4.20;;;;;;;11.43;70.80;101301.69;105950;1278;24359;-54
2023/03/25 02:56:07;;;;;;;4.60;3.80;;;;;;;11.43;70.74;101301.35;105320;1278;1002465;-55
2023/03/25 02:58:37;;;;;;;5.00;4.20;;;;;;;11.43;70.79;101298.75;105972;1284;24201;-53
2023/03/25 03:01:08;;;;;;;5.50;4.30;;;;;;;11.41;70.84;101292.34;106114;1277;22527;-54
2023/03/25 03:03:39;;;;;;;6.30;4.50;;;;;;;11.40;70.99;101288.36;106022;1281;22507;-53
2023/03/25 03:06:14;;;;;;;6.80;5.40;;;;;;;11.41;71.07;101286.61;106525;1276;22512;-54
2023/03/25 03:08:47;;;;;;;7.40;5.60;;;;;;;11.44;71.12;101287.10;107036;1267;25479;-53
2023/03/25 03:11:46;;;;;;;5.50;5.00;;;;;;;11.44;71.18;101281.34;107034;1269;22515;-53
2023/03/25 03:14:46;;;;;;;6.20;4.90;;;;;;;11.45;71.21;101280.64;106817;1256;25389;-53
2023/03/25 03:17:51;;;;;;;6.50;5.40;;;;;;;11.47;71.28;101273.84;106715;1275;22528;-53
2023/03/25 03:20:36;;;;;;;10.10;5.50;;;;;;;11.48;71.20;101275.90;106380;1276;25428;-53
2023/03/25 03:23:22;;;;;;;7.80;5.20;;;;;;;11.48;71.28;101277.48;106359;1276;24300;-53
2023/03/25 03:25:54;;;;;;;6.30;5.20;;;;;;;11.48;71.26;101279.72;105593;1276;1002892;-53
2023/03/25 03:28:27;;;;;;;10.60;5.10;;;;;;;11.50;71.34;101277.27;106360;1276;26597;-54
2023/03/25 03:31:08;;;;;;;7.80;5.20;;;;;;;11.52;71.35;101277.94;106399;1276;24283;-54
2023/03/25 03:33:52;;;;;;;6.50;4.70;;;;;;;11.53;71.34;101272.53;106293;1281;24243;-54
2023/03/25 03:36:26;;;;;;;8.60;5.00;;;;;;;11.54;71.40;101274.25;106239;1279;25334;-53
2023/03/25 03:39:04;;;;;;;11.10;5.00;;;;;;;11.55;71.47;101271.09;106036;1283;25290;-54
2023/03/25 03:41:33;;;;;;;9.00;5.10;;;;;;;11.56;71.62;101273.16;106322;1276;23354;-53
2023/03/25 03:44:06;;;;;;;8.80;5.40;;;;;;;11.57;71.51;101270.87;106324;1278;25603;-53
2023/03/25 03:46:53;;;;;;;12.30;5.50;;;;;;;11.59;71.58;101273.11;106539;1276;22643;-53
2023/03/25 03:49:32;;;;;;;11.40;4.90;;;;;;;11.61;71.60;101279.51;106555;1277;25528;-53
2023/03/25 03:52:29;;;;;;;7.70;4.70;;;;;;;11.63;71.48;101281.89;106370;1276;22707;-53
2023/03/25 03:55:09;;;;;;;6.30;4.40;;;;;;;11.65;71.53;101282.04;106282;1282;24059;-53
2023/03/25 03:57:52;;;;;;;10.50;5.00;;;;;;;11.67;71.52;101285.86;106194;1279;22933;-53
2023/03/25 04:00:26;;;;;;;9.20;4.40;;;;;;;11.68;71.46;101287.05;106442;1280;24308;-53
2023/03/25 04:02:58;;;;;;;5.00;3.00;;;;;;;11.69;71.36;101286.67;106750;1276;25319;-52
2023/03/25 04:05:29;;;;;;;3.10;2.80;;;;;;;11.70;71.13;101291.36;106862;1273;24289;-52
2023/03/25 04:08:10;;;;;;;3.10;2.40;;;;;;;11.68;70.93;101289.65;106719;1276;25367;-52
2023/03/25 04:10:41;;;;;;;3.00;2.10;;;;;;;11.66;70.78;101289.49;106423;1279;25472;-52
2023/03/25 04:13:12;;;;;;;2.60;2.40;;;;;;;11.65;70.69;101292.45;106762;1275;25325;-52
2023/03/25 04:15:42;;;;;;;3.20;2.30;;;;;;;11.63;70.73;101293.18;106757;1273;22523;-52
2023/03/25 04:18:12;;;;;;;3.40;1.60;;;;;;;11.63;70.70;101291.11;106719;1279;22532;-52
2023/03/25 04:20:43;;;;;;;3.40;1.90;;;;;;;11.61;70.55;101287.84;106647;1276;22520;-52
2023/03/25 04:23:15;;;;;;;3.20;2.00;;;;;;;11.59;70.57;101286.84;106436;1280;25334;-53
2023/03/25 04:25:51;;;;;;;4.10;1.80;;;;;;;11.57;70.63;101289.12;106758;1273;22685;-52
2023/03/25 04:28:26;;;;;;;2.60;2.10;;;;;;;11.56;70.68;101294.53;106675;1273;24208;-53
2023/03/25 04:30:56;;;;;;;3.90;2.00;;;;;;;11.55;70.79;101299.94;106706;1272;22655;-53
2023/03/25 04:33:25;;;;;;;2.20;2.00;;;;;;;11.55;70.92;101302.71;107030;1270;22541;-53
2023/03/25 04:35:53;;;;;;;3.70;2.30;;;;;;;11.55;70.99;101305.14;107214;1267;25426;-53
2023/03/25 04:38:22;;;;;;;2.50;1.60;;;;;;;11.55;71.02;101304.98;106915;1270;25331;-53
2023/03/25 04:40:50;;;;;;;5.00;2.30;;;;;;;11.55;70.92;101306.89;107136;1273;25437;-52
2023/03/25 04:43:19;;;;;;;2.30;1.60;;;;;;;11.54;71.07;101311.24;107236;1269;22528;-53
2023/03/25 04:45:52;;;;;;;3.30;1.90;;;;;;;11.54;71.20;101305.70;107219;1270;25462;-53
2023/03/25 04:48:24;;;;;;;6.20;2.50;;;;;;;11.54;71.32;101304.48;106991;1269;22623;-53
2023/03/25 04:50:54;;;;;;;8.70;3.40;;;;;;;11.55;71.48;101306.18;107213;1267;22524;-52
2023/03/25 04:53:24;;;;;;;2.90;2.10;;;;;;;11.57;71.55;101303.02;107224;1267;23599;-53
2023/03/25 04:55:54;;;;;;;5.00;2.40;;;;;;;11.59;71.69;101308.38;107183;1260;22896;-52
2023/03/25 04:58:22;;;;;;;2.80;2.00;;;;;;;11.62;71.76;101307.80;107167;1267;22534;-52
2023/03/25 05:00:52;;;;;;;3.40;2.30;;;;;;;11.64;71.70;101308.30;107145;1267;25446;-52
2023/03/25 05:03:24;;;;;;;3.00;2.30;;;;;;;11.67;71.74;101305.48;107145;1267;22696;-52
2023/03/25 05:05:52;;;;;;;3.90;1.90;;;;;;;11.69;71.82;101306.30;107049;1273;25399;-52
2023/03/25 05:08:21;;;;;;;2.40;1.90;;;;;;;11.70;71.61;101308.04;107111;1267;22520;-52
2023/03/25 05:10:50;;;;;;;2.80;2.10;;;;;;;11.72;71.62;101307.30;107109;1270;25423;-52
2023/03/25 05:13:23;;;;;;;4.00;2.40;;;;;;;11.73;71.62;101310.05;106970;1266;25322;-52
2023/03/25 05:15:51;;;;;;;2.90;2.30;;;;;;;11.74;71.63;101307.79;106371;1266;1002999;-51
2023/03/25 05:18:20;;;;;;;6.90;2.80;;;;;;;11.76;71.66;101310.02;107124;1266;25350;-51
2023/03/25 05:20:59;;;;;;;5.00;2.50;;;;;;;11.76;71.67;101309.67;107168;1260;25368;-51
2023/03/25 05:23:30;;;;;;;6.80;2.90;;;;;;;11.77;71.66;101310.86;107167;1267;25442;-51
2023/03/25 05:25:58;;;;;;;5.00;2.80;;;;;;;11.79;71.73;101305.10;107116;1266;22526;-52
2023/03/25 05:28:29;;;;;;;5.90;2.60;;;;;;;11.82;71.77;101306.63;107046;1270;23883;-52
2023/03/25 05:30:58;;;;;;;2.80;1.90;;;;;;;11.84;71.61;101310.73;106879;1271;22770;-51
2023/03/25 05:33:28;;;;;;;3.60;2.30;;;;;;;11.84;71.65;101312.14;106889;1273;24307;-51
2023/03/25 05:35:56;;;;;;;5.20;2.20;;;;;;;11.86;71.59;101307.76;107024;1269;25330;-51
2023/03/25 05:38:25;;;;;;;5.80;2.30;;;;;;;11.88;71.51;101310.33;107101;1267;22517;-51
2023/03/25 05:40:55;;;;;;;2.90;2.10;;;;;;;11.90;71.47;101309.75;107060;1272;22531;-51
2023/03/25 05:43:26;;;;;;;3.60;2.20;;;;;;;11.92;71.43;101308.34;107171;1267;25347;-51
2023/03/25 05:45:55;;;;;;;4.10;2.40;;;;;;;11.94;71.37;101303.08;107121;1266;25321;-51
2023/03/25 05:48:25;;;;;;;4.30;2.50;;;;;;;11.96;71.28;101302.17;107124;1267;25464;-52
2023/03/25 05:50:55;;;;;;;7.70;2.10;;;;;;;11.98;71.25;101297.60;107171;1267;22523;-51
2023/03/25 05:53:25;;;;;;;;;;;;;;;12.01;71.28;101298.42;107116;1268;25390;-52
2023/03/25 05:55:54;;;;;;;4.70;2.40;;;;;;;12.04;71.24;101301.32;106823;1273;25519;-52
2023/03/25 05:58:24;;;;;;;5.30;2.10;;;;;;;12.07;71.17;101297.95;107085;1270;25315;-52
2023/03/25 06:00:54;;;;;;;7.90;2.60;;;;;;;12.09;71.23;101295.14;107227;1270;25092;-53
2023/03/25 06:03:24;;;;;;;4.20;1.90;;;;;;;12.14;71.11;101296.60;107174;1269;25417;-53
2023/03/25 06:05:54;;;;;;;6.40;2.80;;;;;;;12.19;71.00;101297.90;107210;1266;23012;-53
2023/03/25 06:08:24;;;;;;;7.10;2.40;;;;;;;12.22;70.76;101295.92;107131;1266;25345;-54
2023/03/25 06:10:59;;;;;;;4.80;2.30;;;;;;;12.24;70.71;101287.35;107118;1270;25318;-54
2023/03/25 06:13:32;;;;;;;2.90;1.80;;;;;;;12.29;70.78;101287.42;107174;1270;25347;-54
2023/03/25 06:16:02;;;;;;;8.90;2.90;;;;;;;12.33;70.72;101280.23;107180;1266;24209;-54
2023/03/25 06:18:31;;;;;;;4.80;2.30;;;;;;;12.37;70.57;101278.92;107157;1270;25430;-55
2023/03/25 06:21:00;;;;;;;5.10;2.30;;;;;;;12.39;70.46;101278.19;107107;1267;23854;-55
2023/03/25 06:23:28;;;;;;;5.90;2.10;;;;;;;12.42;70.36;101275.86;107162;1267;25477;-56
2023/03/25 06:25:58;;;;;;;4.60;1.60;;;;;;;12.44;70.18;101278.24;107161;1267;22520;-57
2023/03/25 06:28:28;;;;;;;6.20;2.20;;;;;;;12.50;69.99;101279.86;107081;1273;23983;-55
2023/03/25 06:31:02;;;;;;;5.60;2.00;;;;;;;12.55;69.87;101283.92;107125;1269;25405;-55
2023/03/25 06:33:49;;;;;;;4.50;2.10;;;;;;;12.60;69.64;101285.39;107143;1269;24222;-56
2023/03/25 06:36:20;;;;;;;5.20;2.00;;;;;;;12.63;69.58;101297.14;107109;1266;25343;-56
2023/03/25 06:38:49;;;;;;;6.30;2.30;;;;;;;12.67;69.37;101299.52;107152;1266;22945;-55
2023/03/25 06:41:20;;;;;;;8.20;2.40;;;;;;;12.71;69.28;101303.42;107145;1273;22635;-55
2023/03/25 06:44:04;;;;;;;5.40;2.00;;;;;;;12.76;69.13;101308.89;107071;1272;25349;-56
2023/03/25 06:47:04;;;;;;;4.60;2.10;;;;;;;12.78;68.67;101306.39;107078;1267;25395;-56
2023/03/25 06:49:49;;;;;;;5.90;2.30;;;;;;;12.81;68.56;101302.67;106913;1266;22547;-55
2023/03/25 06:52:19;;;;;;;7.80;2.50;;;;;;;12.82;68.40;101298.81;106862;1266;22518;-55
2023/03/25 06:54:50;;;;;;;5.60;2.20;;;;;;;12.84;68.23;101307.30;106871;1267;23230;-55
2023/03/25 06:57:18;;;;;;;4.80;2.00;;;;;;;12.84;67.96;101307.64;107111;1267;24254;-55
2023/03/25 06:59:48;;;;;;;5.20;2.20;;;;;;;12.84;67.83;101310.45;107089;1267;25417;-54
2023/03/25 07:02:16;;;;;;;5.60;1.90;;;;;;;12.82;67.71;101307.00;106159;1266;1003793;-54
2023/03/25 07:04:45;;;;;;;4.20;2.00;;;;;;;12.81;67.62;101313.47;106144;1274;1003092;-53
2023/03/25 07:07:14;;;;;;;3.30;1.70;;;;;;;12.80;67.65;101313.33;107096;1267;23299;-53
2023/03/25 07:09:42;;;;;;;5.90;2.20;;;;;;;12.79;67.60;101313.51;107035;1273;23256;-53
2023/03/25 07:12:11;;;;;;;7.20;2.00;;;;;;;12.79;67.72;101313.16;106909;1267;22510;-52
2023/03/25 07:14:45;;;;;;;6.00;2.10;;;;;;;12.81;67.65;101310.33;107095;1267;25503;-53
2023/03/25 07:17:13;;;;;;;5.80;2.10;;;;;;;12.83;67.59;101300.53;107162;1270;22518;-54
2023/03/25 07:19:46;;;;;;;7.30;2.20;;;;;;;12.86;67.60;101303.61;106820;1266;26577;-52
2023/03/25 07:22:15;;;;;;;5.40;2.20;;;;;;;12.88;67.46;101303.04;106874;1275;22646;-52
2023/03/25 07:24:44;;;;;;;5.90;2.50;;;;;;;12.90;67.36;101300.02;107172;1261;24218;-52
2023/03/25 07:27:14;;;;;;;5.50;2.10;;;;;;;12.93;67.37;101291.59;106942;1270;25392;-52
2023/03/25 07:29:47;;;;;;;7.10;2.50;;;;;;;12.98;67.34;101294.27;107177;1270;23895;-51
2023/03/25 07:32:15;;;;;;;7.80;2.40;;;;;;;13.01;67.15;101294.55;106954;1267;25350;-51
2023/03/25 07:34:47;;;;;;;7.70;2.70;;;;;;;13.03;67.03;101297.46;106971;1266;25358;-50
2023/03/25 07:37:16;;;;;;;5.00;2.60;;;;;;;13.07;67.01;101297.91;107061;1273;25359;-50
2023/03/25 07:39:45;;;;;;;5.90;2.40;;;;;;;13.11;66.85;101293.66;107150;1267;25391;-50
2023/03/25 07:42:14;;;;;;;3.80;2.10;;;;;;;13.15;66.64;101295.14;107122;1266;25322;-50
2023/03/25 07:45:10;;;;;;;7.20;2.90;;;;;;;13.18;66.43;101291.58;107117;1266;25340;-50
2023/03/25 07:47:40;;;;;;;3.90;2.20;;;;;;;13.20;66.32;101297.98;107058;1269;25350;-50
2023/03/25 07:50:10;;;;;;;6.80;2.60;;;;;;;13.22;66.18;101296.37;107130;1267;25321;-50
2023/03/25 07:52:42;;;;;;;4.50;2.20;;;;;;;13.23;66.28;101295.63;106880;1268;25449;-51
2023/03/25 07:55:10;;;;;;;9.00;2.40;;;;;;;13.28;66.10;101298.64;106749;1265;23002;-50
2023/03/25 07:57:40;;;;;;;11.40;3.30;;;;;;;13.32;65.96;101298.75;107148;1267;22547;-50
2023/03/25 08:00:10;;;;;;;6.60;2.60;;;;;;;13.34;65.83;101299.56;107100;1270;22526;-49
2023/03/25 08:02:40;;;;;;;4.00;2.50;;;;;;;13.39;65.93;101300.66;106925;1268;22511;-50
2023/03/25 08:05:09;;;;;;;4.60;2.50;;;;;;;13.44;65.72;101300.53;107190;1267;25320;-51
2023/03/25 08:07:40;;;;;;;4.10;2.50;;;;;;;13.47;65.44;101293.64;106891;1266;25432;-49
2023/03/25 08:10:09;;;;;;;5.10;3.00;;;;;;;13.50;65.40;101297.06;106971;1263;25347;-50
2023/03/25 08:12:38;;;;;;;6.20;2.20;;;;;;;13.53;65.45;101295.42;106886;1270;25400;-50
2023/03/25 08:15:10;;;;;;;9.00;3.30;;;;;;;13.56;65.21;101296.02;107007;1254;26641;-50
2023/03/25 08:17:39;;;;;;;5.10;2.40;;;;;;;13.58;65.13;101290.76;107044;1268;25526;-50
2023/03/25 08:20:14;;;;;;;9.70;3.40;;;;;;;13.60;65.03;101285.13;106867;1270;25335;-50
2023/03/25 08:22:44;;;;;;;7.70;3.00;;;;;;;13.63;65.05;101283.98;106900;1271;22524;-49
2023/03/25 08:25:13;;;;;;;6.50;3.00;;;;;;;13.68;64.88;101285.27;106850;1269;22649;-50
2023/03/25 08:27:43;;;;;;;5.10;2.30;;;;;;;13.71;64.85;101286.39;106964;1268;25321;-52
2023/03/25 08:30:13;;;;;;;4.70;2.40;;;;;;;13.77;64.76;101281.54;106957;1254;24245;-48
2023/03/25 08:32:44;;;;;;;8.20;3.50;;;;;;;13.82;64.60;101278.79;107011;1270;24337;-50
2023/03/25 08:35:34;;;;;;;8.80;3.00;;;;;;;13.87;64.41;101275.49;106897;1269;22763;-50
2023/03/25 08:38:05;;;;;;;5.30;2.20;;;;;;;13.91;64.40;101274.17;106938;1270;25618;-50
2023/03/25 08:40:34;;;;;;;4.40;2.00;;;;;;;13.95;64.16;101269.87;106877;1268;23898;-50
2023/03/25 08:43:04;;;;;;;4.70;2.20;;;;;;;14.00;64.04;101264.17;106901;1273;22530;-50
2023/03/25 08:45:37;;;;;;;9.60;2.80;;;;;;;14.04;63.86;101262.84;106869;1269;25419;-49
2023/03/25 08:48:09;;;;;;;6.30;2.40;;;;;;;14.09;63.96;101263.39;107026;1269;25519;-50
2023/03/25 08:50:41;;;;;;;10.60;2.90;;;;;;;14.15;63.77;101269.14;107023;1270;25339;-49
2023/03/25 08:53:12;;;;;;;6.90;2.90;;;;;;;14.21;63.56;101270.71;107015;1269;25318;-49
2023/03/25 08:55:40;;;;;;;7.20;3.30;;;;;;;14.27;63.18;101263.05;106844;1269;22533;-49
2023/03/25 08:58:12;;;;;;;6.50;2.80;;;;;;;14.31;63.18;101261.37;106906;1274;25403;-50
2023/03/25 09:00:41;;;;;;;5.40;2.70;;;;;;;14.38;63.20;101262.04;106905;1275;25343;-49
2023/03/25 09:03:10;;;;;;;9.00;2.80;;;;;;;14.45;62.90;101261.66;107005;1270;25514;-50
2023/03/25 09:05:41;;;;;;;4.70;2.70;;;;;;;14.51;62.48;101255.54;106472;1276;24943;-49
2023/03/25 09:08:11;;;;;;;7.40;2.50;;;;;;;14.56;62.11;101258.72;106801;1270;24375;-49
2023/03/25 09:10:39;;;;;;;8.90;3.00;;;;;;;14.57;61.76;101258.84;106977;1268;26487;-49
2023/03/25 09:13:08;;;;;;;7.80;2.60;;;;;;;14.59;61.52;101259.67;106797;1270;25429;-50
2023/03/25 09:15:37;;;;;;;7.90;3.10;;;;;;;14.58;61.27;101257.93;106813;1273;25356;-50
2023/03/25 09:18:09;;;;;;;;;;;;;;;14.58;61.23;101250.42;106951;1269;25356;-50
2023/03/25 09:20:38;;;;;;;7.50;3.30;;;;;;;14.59;61.03;101248.50;106944;1268;25328;-49
2023/03/25 09:23:08;;;;;;;6.50;2.30;;;;;;;14.57;61.01;101249.95;107022;1269;25508;-49
2023/03/25 09:25:45;;;;;;;7.30;3.30;;;;;;;14.57;60.91;101250.11;106872;1268;22628;-49
2023/03/25 09:28:13;;;;;;;5.10;3.00;;;;;;;14.57;60.89;101252.21;106948;1273;22614;-49
2023/03/25 09:30:42;;;;;;;9.00;3.10;;;;;;;14.57;60.91;101247.85;106848;1270;22984;-49
2023/03/25 09:33:11;;;;;;;8.20;2.50;;;;;;;14.58;60.98;101242.05;106854;1270;25348;-50
2023/03/25 09:35:40;;;;;;;5.80;2.70;;;;;;;14.60;60.84;101240.77;106989;1270;25328;-49
2023/03/25 09:38:09;;;;;;;7.30;2.40;;;;;;;14.61;60.69;101237.97;106929;1268;25367;-50
2023/03/25 09:40:42;;;;;;;5.00;2.70;;;;;;;14.63;60.68;101237.02;106799;1269;24236;-48
2023/03/25 09:43:23;;;;;;;6.80;2.30;;;;;;;14.66;60.78;101239.71;106811;1270;22584;-50
2023/03/25 09:45:54;;;;;;;10.10;3.20;;;;;;;14.72;60.74;101238.33;106897;1269;23360;-50
2023/03/25 09:48:37;;;;;;;6.20;2.90;;;;;;;14.77;60.68;101236.77;106968;1273;24257;-50
2023/03/25 09:51:08;;;;;;;5.60;2.80;;;;;;;14.83;60.50;101235.87;106868;1270;25338;-50
2023/03/25 09:53:54;;;;;;;3.70;2.20;;;;;;;14.88;60.03;101233.10;106844;1270;25517;-50
2023/03/25 09:56:25;;;;;;;7.30;2.40;;;;;;;14.90;59.69;101231.80;106896;1261;22785;-50
2023/03/25 09:59:08;;;;;;;9.40;2.60;;;;;;;14.91;59.59;101228.64;107012;1270;25370;-49
2023/03/25 10:01:52;;;;;;;6.50;3.00;;;;;;;14.92;59.73;101226.16;106949;1269;25461;-50
2023/03/25 10:04:59;;;;;;;5.60;2.30;;;;;;;14.96;59.77;101228.84;106922;1268;23002;-50
2023/03/25 10:07:55;;;;;;;10.70;2.80;;;;;;;14.99;59.55;101227.48;106448;1275;25485;-49
2023/03/25 10:10:35;;;;;;;6.80;3.10;;;;;;;15.03;59.47;101220.38;106301;1277;24398;-50
2023/03/25 10:13:52;;;;;;;7.70;2.90;;;;;;;15.06;59.31;101216.96;106543;1276;23156;-50
2023/03/25 10:16:36;;;;;;;7.90;3.00;;;;;;;15.08;59.10;101207.81;105910;1282;25356;-50
2023/03/25 10:19:22;;;;;;;7.80;3.20;;;;;;;15.08;59.00;101202.73;105916;1287;25372;-50
2023/03/25 10:21:55;;;;;;;8.20;3.40;;;;;;;15.06;58.78;101199.33;106002;1281;22659;-50
2023/03/25 10:24:38;;;;;;;5.20;2.70;;;;;;;15.03;58.78;101196.45;105893;1283;25348;-49
2023/03/25 10:27:43;;;;;;;7.10;3.10;;;;;;;15.00;58.76;101190.61;105978;1286;24448;-49
2023/03/25 10:30:17;;;;;;;9.30;3.50;;;;;;;14.97;58.67;101185.30;106188;1273;22683;-50
2023/03/25 10:33:04;;;;;;;5.30;3.00;;;;;;;14.91;58.80;101184.44;105904;1289;25323;-50
2023/03/25 10:35:37;;;;;;;8.70;4.10;;;;;;;14.84;59.02;101185.20;105944;1289;22562;-50
2023/03/25 10:38:20;;;;;;;7.50;3.60;;;;;;;14.79;59.35;101186.04;105787;1283;22561;-50
2023/03/25 10:41:14;;;;;;;8.50;3.40;;;;;;;14.76;59.47;101177.75;105656;1289;24285;-50
2023/03/25 10:43:45;;;;;;;5.50;3.30;;;;;;;14.73;59.57;101180.48;105785;1289;25410;-49
2023/03/25 10:46:46;;;;;;;8.70;3.30;;;;;;;14.68;59.60;101184.14;105996;1287;22643;-49
2023/03/25 10:49:22;;;;;;;17.20;3.50;;;;;;;14.63;59.51;101179.73;105471;1295;25307;-50
2023/03/25 10:51:53;;;;;;;6.30;3.10;;;;;;;14.58;59.49;101174.48;105634;1286;25589;-49
2023/03/25 10:54:27;;;;;;;5.70;3.10;;;;;;;14.54;59.42;101165.37;105886;1283;22549;-49
2023/03/25 10:56:57;;;;;;;7.80;3.20;;;;;;;14.47;59.51;101163.33;105854;1286;22556;-50
2023/03/25 10:59:47;;;;;;;5.70;3.10;;;;;;;14.39;59.57;101159.20;105572;1286;22652;-49
2023/03/25 11:02:21;;;;;;;6.60;3.00;;;;;;;14.32;59.96;101156.48;105936;1277;25369;-50
2023/03/25 11:05:03;;;;;;;6.70;3.60;;;;;;;14.28;60.17;101150.46;105918;1277;25472;-50
2023/03/25 11:07:43;;;;;;;10.10;3.10;;;;;;;14.25;60.26;101144.80;106116;1276;25449;-50
2023/03/25 11:10:25;;;;;;;6.60;3.30;;;;;;;14.21;60.28;101146.13;106064;1283;25370;-51
2023/03/25 11:12:55;;;;;;;7.40;3.70;;;;;;;14.17;60.45;101139.11;106060;1277;22536;-50
2023/03/25 11:15:32;;;;;;;6.80;3.70;;;;;;;14.13;60.62;101138.87;105834;1283;25327;-50
2023/03/25 11:18:03;;;;;;;11.20;4.00;;;;;;;14.10;60.73;101142.61;106170;1279;22664;-50
2023/03/25 11:20:48;;;;;;;7.00;3.80;;;;;;;14.06;60.84;101139.08;106516;1269;24702;-50
2023/03/25 11:23:28;;;;;;;7.70;3.30;;;;;;;14.03;61.01;101137.45;107210;1261;22595;-49
2023/03/25 11:26:05;;;;;;;8.90;4.10;;;;;;;14.00;61.03;101137.36;107390;1267;23333;-49
2023/03/25 11:28:44;;;;;;;11.60;4.50;;;;;;;13.97;60.98;101137.45;107225;1262;22562;-49
2023/03/25 11:31:18;;;;;;;9.40;4.20;;;;;;;13.92;61.10;101134.63;107735;1268;22731;-49
2023/03/25 11:34:15;;;;;;;7.40;4.80;;;;;;;13.88;61.30;101131.59;107173;1260;25292;-49
2023/03/25 11:37:07;;;;;;;11.30;4.40;;;;;;;13.85;61.45;101131.86;107003;1269;22533;-48
2023/03/25 11:39:38;;;;;;;8.90;3.70;;;;;;;13.83;61.63;101124.25;107462;1260;22865;-51
2023/03/25 11:42:10;;;;;;;6.80;4.20;;;;;;;13.80;61.46;101126.94;106931;1260;25391;-48
2023/03/25 11:44:38;;;;;;;8.90;4.50;;;;;;;13.76;61.49;101124.11;107192;1254;25363;-50
2023/03/25 11:47:08;;;;;;;7.50;4.10;;;;;;;13.71;61.57;101114.31;106803;1260;25320;-49